Decatur, Ohio
Current Conditions -  °F | °C
As of 5:55 AM on Friday 24 Oct 2014 (Local Time) from KFGX Reporting Station
Haze Haze  
Wind Chill: 40°   Ceiling: Unl
Heat Index: 40°   Visibility: 4mi
Dew Point: 39°   Wind: 0mph
Humidity: 98%   Direction: NA
Pressure: 30.14"   Gusts: NA
Location:  38.82°N, 83.7°W
Report Text: KFGX 240955Z AUTO 00000KT 4SM BR CLR 04/04 A3014 RMK AO2 T00420039
Loading
Personal Weather Stations






























Interactive Weather Map
Tropical Storm Tracking
New forecast layout! Learn more

10-Day Weather Forecast

Advertisements
Track Severe Weather on mobile